Time;durP1;ratioP1;P1;durP2;ratioP2;P2;SDS_P1;SDS_P2;PMS_P1;PMS_P2;Temp;Humidity;BMP_temperature;BMP_pressure;BME280_temperature;BME280_humidity;BME280_pressure;Samples;Min_cycle;Max_cycle;Signal;HPM_P1;HPM_P2
2024/01/13 00:00:21;;;;;;;15.35;8.68;;;1.90;99.90;;;;;;6133206;23;20491;-87
2024/01/13 00:02:48;;;;;;;18.67;8.40;;;1.90;99.90;;;;;;6134033;23;20181;-86
2024/01/13 00:05:15;;;;;;;17.23;8.10;;;1.90;99.90;;;;;;6143156;23;20183;-85
2024/01/13 00:07:41;;;;;;;18.58;8.43;;;1.90;99.90;;;;;;6138668;23;20188;-86
2024/01/13 00:10:09;;;;;;;21.25;7.63;;;2.00;99.90;;;;;;6147979;23;20181;-86
2024/01/13 00:12:36;;;;;;;15.65;7.20;;;1.90;99.90;;;;;;6138713;23;20188;-86
2024/01/13 00:15:03;;;;;;;25.08;15.68;;;1.90;99.90;;;;;;6135009;23;20227;-85
2024/01/13 00:17:31;;;;;;;18.02;8.55;;;1.90;99.90;;;;;;6135720;23;20196;-86
2024/01/13 00:19:58;;;;;;;18.55;8.40;;;2.00;99.90;;;;;;6134742;23;20181;-85
2024/01/13 00:22:27;;;;;;;16.33;8.95;;;1.90;99.90;;;;;;6135747;23;20199;-86
2024/01/13 00:24:54;;;;;;;17.80;8.73;;;1.90;99.90;;;;;;6149454;23;20177;-86
2024/01/13 00:27:21;;;;;;;9.73;6.65;;;1.90;99.90;;;;;;6134748;23;20261;-86
2024/01/13 00:29:47;;;;;;;17.50;7.90;;;1.90;99.90;;;;;;6137285;23;20197;-86
2024/01/13 00:32:15;;;;;;;19.67;7.50;;;2.00;99.90;;;;;;6139990;23;20209;-85
2024/01/13 00:34:43;;;;;;;11.20;7.45;;;2.10;99.90;;;;;;6136138;23;20192;-86
2024/01/13 00:37:10;;;;;;;16.58;8.02;;;2.00;99.90;;;;;;6135026;23;20197;-86
2024/01/13 00:39:36;;;;;;;14.18;8.40;;;2.00;99.90;;;;;;6135153;23;20201;-87
2024/01/13 00:42:04;;;;;;;10.82;7.93;;;2.00;99.90;;;;;;6141843;23;20181;-86
2024/01/13 00:44:30;;;;;;;11.05;7.53;;;2.00;99.90;;;;;;6134903;23;20519;-85
2024/01/13 00:46:57;;;;;;;20.08;8.45;;;2.00;99.90;;;;;;6134631;23;20180;-86
2024/01/13 00:49:24;;;;;;;8.95;7.03;;;2.10;99.90;;;;;;6132325;23;20562;-86
2024/01/13 00:51:53;;;;;;;16.77;6.30;;;2.10;99.90;;;;;;6133770;23;20216;-86
2024/01/13 00:54:22;;;;;;;18.10;7.20;;;2.10;99.90;;;;;;6135506;23;20187;-85
2024/01/13 00:56:49;;;;;;;12.93;7.13;;;2.10;99.90;;;;;;6141987;23;20181;-86
2024/01/13 00:59:16;;;;;;;10.63;6.57;;;2.20;99.90;;;;;;6152462;23;20193;-84
2024/01/13 01:01:42;;;;;;;15.52;8.18;;;2.10;99.90;;;;;;6134425;23;20259;-86
2024/01/13 01:04:09;;;;;;;14.30;8.07;;;2.10;99.90;;;;;;6134928;23;20212;-85
2024/01/13 01:06:36;;;;;;;10.30;6.80;;;2.10;99.90;;;;;;6136354;23;20177;-85
2024/01/13 01:09:06;;;;;;;18.85;8.60;;;2.10;99.90;;;;;;6134879;23;20208;-86
2024/01/13 01:11:33;;;;;;;11.80;5.88;;;2.00;99.90;;;;;;6142358;23;20181;-87
2024/01/13 01:14:00;;;;;;;11.55;7.32;;;2.00;99.90;;;;;;6145380;23;20181;-86
2024/01/13 01:16:27;;;;;;;10.60;6.15;;;2.10;99.90;;;;;;6139844;23;20210;-86
2024/01/13 01:18:53;;;;;;;12.38;6.03;;;2.10;99.90;;;;;;6139549;23;20201;-86
2024/01/13 01:21:20;;;;;;;16.10;6.60;;;2.20;99.90;;;;;;6144219;23;20567;-85
2024/01/13 01:23:48;;;;;;;11.07;6.72;;;2.20;99.90;;;;;;6143951;23;20206;-86
2024/01/13 01:26:16;;;;;;;10.90;6.57;;;2.20;99.90;;;;;;6142477;23;20181;-85
2024/01/13 01:28:43;;;;;;;10.23;4.97;;;2.20;99.90;;;;;;6137151;23;20283;-85
2024/01/13 01:31:10;;;;;;;12.60;6.75;;;2.20;99.90;;;;;;6139895;23;20181;-85
2024/01/13 01:33:37;;;;;;;7.97;5.30;;;2.20;99.90;;;;;;6134458;23;20256;-87
2024/01/13 01:36:04;;;;;;;7.25;4.93;;;2.10;99.90;;;;;;6136169;23;20177;-86
2024/01/13 01:38:31;;;;;;;7.25;4.70;;;2.20;99.90;;;;;;6150248;23;20192;-82
2024/01/13 01:40:58;;;;;;;12.85;5.95;;;2.20;99.90;;;;;;6154433;23;20161;-84
2024/01/13 01:43:26;;;;;;;11.20;5.40;;;2.10;99.90;;;;;;6153470;23;20177;-86
2024/01/13 01:45:55;;;;;;;17.35;6.82;;;2.10;99.90;;;;;;6144965;23;20188;-86
2024/01/13 01:48:28;;;;;;;13.55;5.65;;;2.10;99.90;;;;;;6137714;23;20680;-86
2024/01/13 01:50:55;;;;;;;7.72;5.20;;;2.10;99.90;;;;;;6141794;23;20200;-85
2024/01/13 01:53:22;;;;;;;7.22;5.32;;;2.10;99.90;;;;;;6143270;23;20189;-85
2024/01/13 01:55:49;;;;;;;8.93;5.35;;;2.10;99.90;;;;;;6149088;23;20181;-86
2024/01/13 01:58:17;;;;;;;11.15;5.50;;;2.10;99.90;;;;;;6142293;23;20229;-86
2024/01/13 02:00:46;;;;;;;10.43;5.25;;;2.20;99.90;;;;;;6135163;23;20185;-85
2024/01/13 02:03:13;;;;;;;12.82;5.93;;;2.10;99.90;;;;;;6134296;23;20181;-86
2024/01/13 02:05:40;;;;;;;10.88;5.13;;;2.10;99.90;;;;;;6133889;23;20204;-85
2024/01/13 02:08:07;;;;;;;11.20;5.60;;;2.10;99.90;;;;;;6132830;23;20247;-86
2024/01/13 02:10:35;;;;;;;10.52;4.80;;;2.20;99.90;;;;;;6133678;23;20181;-86
2024/01/13 02:13:02;;;;;;;7.47;4.85;;;2.10;99.90;;;;;;6133162;23;20232;-86
2024/01/13 02:15:29;;;;;;;5.68;3.90;;;2.20;99.90;;;;;;6133716;23;20232;-85
2024/01/13 02:17:57;;;;;;;10.30;5.05;;;2.20;99.90;;;;;;6134106;23;20208;-85
2024/01/13 02:20:24;;;;;;;5.43;4.05;;;2.20;99.90;;;;;;6138332;23;20216;-85
2024/01/13 02:22:52;;;;;;;5.90;4.55;;;2.30;99.90;;;;;;6135870;23;20181;-88
2024/01/13 02:25:19;;;;;;;7.60;4.80;;;2.30;99.90;;;;;;6135537;23;20181;-85
2024/01/13 02:27:46;;;;;;;11.38;4.72;;;2.20;99.90;;;;;;6141805;23;20178;-85
2024/01/13 02:30:14;;;;;;;8.43;5.03;;;2.20;99.90;;;;;;6149583;23;20209;-86
2024/01/13 02:32:40;;;;;;;6.70;5.03;;;2.20;99.90;;;;;;6153550;23;20173;-87
2024/01/13 02:35:08;;;;;;;9.63;5.47;;;2.20;99.90;;;;;;6154271;23;20172;-85
2024/01/13 02:37:35;;;;;;;12.13;6.40;;;2.20;99.90;;;;;;6154312;23;20185;-86
2024/01/13 02:40:04;;;;;;;6.22;4.20;;;2.20;99.90;;;;;;6147038;23;20181;-86
2024/01/13 02:42:31;;;;;;;11.95;4.60;;;2.20;99.90;;;;;;6140243;23;20209;-86
2024/01/13 02:44:58;;;;;;;5.72;4.60;;;2.20;99.90;;;;;;6140557;23;20177;-85
2024/01/13 02:47:33;;;;;;;6.40;4.70;;;2.20;99.90;;;;;;6137618;23;20197;-86
2024/01/13 02:50:00;;;;;;;9.13;4.90;;;2.20;99.90;;;;;;6136074;23;20195;-86
2024/01/13 02:52:27;;;;;;;8.20;4.10;;;2.10;99.90;;;;;;6147528;23;20161;-84
2024/01/13 02:54:54;;;;;;;10.13;4.20;;;2.00;99.90;;;;;;6135705;23;20215;-85
2024/01/13 02:57:22;;;;;;;8.38;4.45;;;2.00;99.90;;;;;;6133734;23;20197;-85
2024/01/13 02:59:49;;;;;;;11.07;4.43;;;2.00;1.00;;;;;;6137276;23;20200;-86
2024/01/13 03:02:16;;;;;;;7.72;4.10;;;2.00;1.00;;;;;;6139177;23;20212;-85
2024/01/13 03:04:43;;;;;;;12.40;4.55;;;2.00;1.00;;;;;;6137619;23;20498;-84
2024/01/13 03:07:10;;;;;;;5.50;4.15;;;2.00;1.00;;;;;;6146028;23;20168;-83
2024/01/13 03:09:37;;;;;;;9.65;4.47;;;1.90;1.00;;;;;;6154734;23;20185;-82
2024/01/13 03:12:10;;;;;;;6.60;5.13;;;1.90;1.00;;;;;;6154978;23;20165;-82
2024/01/13 03:14:38;;;;;;;6.30;3.78;;;2.00;1.00;;;;;;6154521;23;20173;-82
2024/01/13 03:17:05;;;;;;;9.20;4.63;;;1.90;1.00;;;;;;6154618;23;20185;-84
2024/01/13 03:19:32;;;;;;;9.20;4.20;;;2.00;1.00;;;;;;6154924;23;20185;-83
2024/01/13 03:21:58;;;;;;;8.55;4.45;;;2.10;1.00;;;;;;6153883;23;20176;-84
2024/01/13 03:24:28;;;;;;;5.35;3.70;;;2.00;1.00;;;;;;6153979;23;20188;-84
2024/01/13 03:26:55;;;;;;;5.30;3.53;;;2.10;1.00;;;;;;6141044;23;20176;-85
2024/01/13 03:29:21;;;;;;;7.25;3.78;;;2.10;1.00;;;;;;6132430;23;20223;-85
2024/01/13 03:31:50;;;;;;;8.52;4.60;;;2.00;1.00;;;;;;6130903;23;20232;-85
2024/01/13 03:34:16;;;;;;;4.43;3.90;;;2.00;1.00;;;;;;6131071;23;20181;-84
2024/01/13 03:36:43;;;;;;;4.93;3.92;;;2.00;1.00;;;;;;6130519;23;20236;-85
2024/01/13 03:39:10;;;;;;;7.82;4.30;;;2.00;1.00;;;;;;6133930;23;20209;-85
2024/01/13 03:41:40;;;;;;;9.48;4.10;;;2.00;1.00;;;;;;6145574;23;20188;-84
2024/01/13 03:44:07;;;;;;;7.90;4.38;;;2.00;1.00;;;;;;6149988;23;20184;-84
2024/01/13 03:46:34;;;;;;;4.95;4.13;;;1.90;1.00;;;;;;6132491;23;20181;-85
2024/01/13 03:49:02;;;;;;;5.82;4.78;;;1.90;1.00;;;;;;6148125;23;20225;-84
2024/01/13 03:51:28;;;;;;;7.63;4.75;;;1.90;1.00;;;;;;6153868;23;20193;-84
2024/01/13 03:53:56;;;;;;;7.53;5.28;;;1.90;1.00;;;;;;6153038;23;20177;-84
2024/01/13 03:56:22;;;;;;;8.65;5.78;;;1.80;1.00;;;;;;6132298;23;20212;-85
2024/01/13 03:58:49;;;;;;;8.18;5.75;;;1.90;1.00;;;;;;6133206;23;20208;-84
2024/01/13 04:01:16;;;;;;;7.97;5.93;;;1.80;1.00;;;;;;6132283;23;20496;-85
2024/01/13 04:03:43;;;;;;;5.97;4.18;;;1.90;1.00;;;;;;6137201;23;20184;-85
2024/01/13 04:06:12;;;;;;;9.30;5.45;;;1.80;1.00;;;;;;6135743;23;20236;-85
2024/01/13 04:08:39;;;;;;;10.35;5.70;;;1.90;1.00;;;;;;6134327;23;20204;-85
2024/01/13 04:11:08;;;;;;;7.00;4.50;;;1.80;1.00;;;;;;6136900;23;20207;-85
2024/01/13 04:13:35;;;;;;;6.28;5.32;;;1.90;1.00;;;;;;6136561;23;20183;-85
2024/01/13 04:16:02;;;;;;;7.85;4.63;;;1.90;1.00;;;;;;6134407;23;20181;-85
2024/01/13 04:18:28;;;;;;;6.43;4.97;;;1.90;1.00;;;;;;6133687;23;20281;-85
2024/01/13 04:20:55;;;;;;;6.20;5.10;;;2.00;1.00;;;;;;6134422;23;20667;-85
2024/01/13 04:23:23;;;;;;;7.18;4.93;;;2.00;1.00;;;;;;6134879;23;20220;-85
2024/01/13 04:25:50;;;;;;;6.65;4.55;;;2.00;1.00;;;;;;6133329;23;20181;-85
2024/01/13 04:28:17;;;;;;;7.70;4.65;;;2.00;1.00;;;;;;6130538;23;20225;-85
2024/01/13 04:30:44;;;;;;;6.68;5.60;;;1.90;1.00;;;;;;6131082;23;20232;-86
2024/01/13 04:33:11;;;;;;;8.07;4.68;;;1.90;1.00;;;;;;6130803;23;20183;-85
2024/01/13 04:35:37;;;;;;;8.27;4.75;;;2.00;1.00;;;;;;6130139;23;20727;-84
2024/01/13 04:38:05;;;;;;;5.90;4.80;;;1.90;1.00;;;;;;6130315;23;20287;-85
2024/01/13 04:40:36;;;;;;;5.15;4.35;;;1.90;1.00;;;;;;6130012;23;20181;-85
2024/01/13 04:43:03;;;;;;;6.68;4.45;;;2.00;1.00;;;;;;6137210;23;20221;-86
2024/01/13 04:45:30;;;;;;;7.22;4.95;;;2.00;1.00;;;;;;6142392;23;20181;-85
2024/01/13 04:47:57;;;;;;;7.15;4.22;;;2.00;1.00;;;;;;6138327;23;20220;-86
2024/01/13 04:50:24;;;;;;;6.35;5.30;;;1.90;1.00;;;;;;6138370;23;20206;-85
2024/01/13 04:52:51;;;;;;;8.35;4.72;;;1.90;1.00;;;;;;6136955;23;20216;-85
2024/01/13 04:55:18;;;;;;;5.50;3.67;;;1.90;1.00;;;;;;6135448;23;20240;-86
2024/01/13 04:57:47;;;;;;;7.25;5.35;;;1.90;1.00;;;;;;6134388;23;20182;-84
2024/01/13 05:00:16;;;;;;;6.68;4.32;;;1.90;1.00;;;;;;6134390;23;20563;-85
2024/01/13 05:02:43;;;;;;;6.95;3.90;;;2.00;1.00;;;;;;6132422;23;20181;-86
2024/01/13 05:05:09;;;;;;;7.05;4.20;;;2.00;1.00;;;;;;6131651;23;20208;-85
2024/01/13 05:07:38;;;;;;;5.40;4.28;;;1.90;1.00;;;;;;6132906;23;20551;-85
2024/01/13 05:10:07;;;;;;;6.47;4.18;;;2.00;1.00;;;;;;6131664;23;20232;-85
2024/01/13 05:12:34;;;;;;;28.92;14.75;;;1.90;1.00;;;;;;6131737;23;20185;-85
2024/01/13 05:15:02;;;;;;;7.03;4.80;;;1.90;1.00;;;;;;6134500;23;20241;-84
2024/01/13 05:17:29;;;;;;;13.60;8.27;;;1.90;1.00;;;;;;6132717;23;20216;-84
2024/01/13 05:19:55;;;;;;;6.03;4.55;;;1.90;1.00;;;;;;6143126;23;20189;-82
2024/01/13 05:22:22;;;;;;;7.15;5.40;;;1.90;1.00;;;;;;6137581;23;20207;-85
2024/01/13 05:24:49;;;;;;;9.90;8.00;;;1.90;1.00;;;;;;6139137;23;20704;-85
2024/01/13 05:27:16;;;;;;;8.85;6.60;;;1.90;1.00;;;;;;6140397;23;20691;-85
2024/01/13 05:29:43;;;;;;;11.05;7.15;;;1.80;1.00;;;;;;6147531;23;20201;-85
2024/01/13 05:32:11;;;;;;;5.80;5.07;;;1.90;1.00;;;;;;6143367;23;20179;-85
2024/01/13 05:34:39;;;;;;;5.28;4.78;;;1.90;1.00;;;;;;6147782;23;20181;-83
2024/01/13 05:37:06;;;;;;;6.05;4.90;;;1.90;1.00;;;;;;6151726;23;20196;-85
2024/01/13 05:39:33;;;;;;;7.93;4.30;;;1.90;1.00;;;;;;6150962;23;20185;-85
2024/01/13 05:41:59;;;;;;;7.13;5.05;;;1.90;1.00;;;;;;6150418;23;20193;-86
2024/01/13 05:44:28;;;;;;;10.10;6.72;;;1.90;1.00;;;;;;6141098;23;20181;-85
2024/01/13 05:46:54;;;;;;;9.85;6.40;;;1.90;1.00;;;;;;6133689;23;20185;-86
2024/01/13 05:49:23;;;;;;;11.50;7.03;;;1.90;1.00;;;;;;6151039;23;20193;-84
2024/01/13 05:51:50;;;;;;;16.00;10.32;;;1.90;1.00;;;;;;6155684;23;20161;-83
2024/01/13 05:54:17;;;;;;;8.30;5.97;;;1.90;1.00;;;;;;6155575;23;20169;-85
2024/01/13 05:56:44;;;;;;;12.90;6.00;;;1.90;1.00;;;;;;6154705;23;20188;-84
2024/01/13 05:59:12;;;;;;;8.43;6.20;;;1.80;1.00;;;;;;6147389;23;20219;-86
2024/01/13 06:01:38;;;;;;;8.45;6.07;;;1.90;1.00;;;;;;6140163;23;20237;-86
2024/01/13 06:04:05;;;;;;;5.53;5.00;;;1.80;1.00;;;;;;6138631;23;20201;-86
2024/01/13 06:06:33;;;;;;;10.77;7.10;;;1.80;1.00;;;;;;6137859;23;20575;-87
2024/01/13 06:09:00;;;;;;;7.55;5.50;;;1.80;1.00;;;;;;6134967;23;20229;-86
2024/01/13 06:11:27;;;;;;;11.38;7.07;;;1.90;1.00;;;;;;6133167;23;20212;-86
2024/01/13 06:13:55;;;;;;;7.75;6.15;;;1.80;1.00;;;;;;6132949;23;20237;-85
2024/01/13 06:16:22;;;;;;;8.10;6.38;;;1.80;1.00;;;;;;6131883;23;20238;-85
2024/01/13 06:18:49;;;;;;;7.97;5.80;;;1.80;1.00;;;;;;6131816;23;20276;-86
2024/01/13 06:21:16;;;;;;;8.68;7.50;;;1.80;1.00;;;;;;6141205;23;20253;-86
2024/01/13 06:23:45;;;;;;;9.18;6.22;;;1.80;1.00;;;;;;6137305;23;20206;-86
2024/01/13 06:26:12;;;;;;;13.45;7.65;;;1.80;1.00;;;;;;6134605;23;20184;-86
2024/01/13 06:28:39;;;;;;;9.70;6.68;;;1.70;1.00;;;;;;6133515;23;20221;-86
2024/01/13 06:31:06;;;;;;;8.65;6.60;;;1.70;1.00;;;;;;6133392;23;20223;-86
2024/01/13 06:33:33;;;;;;;7.70;5.95;;;1.70;1.00;;;;;;6139062;23;20186;-85
2024/01/13 06:36:00;;;;;;;10.20;6.13;;;1.80;1.00;;;;;;6134316;23;20181;-86
2024/01/13 06:38:27;;;;;;;12.43;6.55;;;1.80;1.00;;;;;;6132508;23;20201;-86
2024/01/13 06:40:55;;;;;;;8.55;6.05;;;1.80;1.00;;;;;;6139587;23;20172;-83
2024/01/13 06:43:22;;;;;;;6.72;5.47;;;1.80;1.00;;;;;;6131827;23;20260;-85
2024/01/13 06:45:49;;;;;;;10.77;6.75;;;1.80;1.00;;;;;;6129917;23;20215;-85
2024/01/13 06:48:16;;;;;;;7.68;5.82;;;1.80;1.00;;;;;;6135924;23;20208;-85
2024/01/13 06:50:43;;;;;;;10.38;6.28;;;1.80;1.00;;;;;;6131805;23;20196;-85
2024/01/13 06:53:09;;;;;;;5.57;4.97;;;1.80;1.00;;;;;;6130563;23;20264;-86
2024/01/13 06:55:36;;;;;;;9.50;6.38;;;1.80;1.00;;;;;;6130445;23;20707;-85
2024/01/13 06:58:04;;;;;;;10.63;6.97;;;1.80;1.00;;;;;;6132662;23;20200;-85
2024/01/13 07:00:31;;;;;;;6.43;5.63;;;1.70;1.00;;;;;;6132396;23;20252;-85
2024/01/13 07:02:58;;;;;;;6.53;5.40;;;1.80;1.00;;;;;;6132843;23;20181;-86
2024/01/13 07:05:25;;;;;;;7.10;5.35;;;1.80;1.00;;;;;;6135438;23;20209;-85
2024/01/13 07:07:52;;;;;;;7.10;5.85;;;1.80;1.00;;;;;;6133467;23;20208;-85
2024/01/13 07:10:18;;;;;;;7.03;5.43;;;1.80;1.00;;;;;;6133040;23;20177;-85
2024/01/13 07:12:48;;;;;;;6.22;5.00;;;1.80;1.00;;;;;;6134315;23;20634;-85
2024/01/13 07:15:16;;;;;;;7.15;4.85;;;1.80;1.00;;;;;;6137841;23;20180;-85
2024/01/13 07:17:43;;;;;;;11.55;5.63;;;1.80;1.00;;;;;;6151856;23;20181;-82
2024/01/13 07:20:10;;;;;;;4.60;4.18;;;1.80;1.00;;;;;;6140109;23;20212;-85
2024/01/13 07:22:37;;;;;;;6.97;4.70;;;1.80;1.00;;;;;;6137136;23;20181;-86
2024/01/13 07:25:05;;;;;;;5.32;4.22;;;1.80;1.00;;;;;;6136326;23;20181;-85
2024/01/13 07:27:32;;;;;;;6.47;4.90;;;1.80;1.00;;;;;;6148195;23;20177;-84
2024/01/13 07:29:59;;;;;;;8.80;5.00;;;1.80;1.00;;;;;;6154674;23;20157;-83
2024/01/13 07:32:28;;;;;;;6.78;5.20;;;1.80;1.00;;;;;;6154758;23;20181;-84
2024/01/13 07:34:54;;;;;;;5.53;4.28;;;1.80;1.00;;;;;;6154663;23;20188;-83
2024/01/13 07:37:21;;;;;;;6.38;3.95;;;1.80;1.00;;;;;;6154566;23;20217;-85
2024/01/13 07:39:48;;;;;;;6.60;5.22;;;1.80;1.00;;;;;;6153404;23;20224;-85
2024/01/13 07:42:15;;;;;;;5.30;4.68;;;1.80;1.00;;;;;;6154083;23;20185;-84
2024/01/13 07:44:42;;;;;;;5.80;4.43;;;1.80;1.00;;;;;;6153962;23;20176;-84
2024/01/13 07:47:09;;;;;;;5.35;4.57;;;1.80;1.00;;;;;;6143786;23;20161;-82
2024/01/13 07:49:38;;;;;;;6.88;4.88;;;1.90;1.00;;;;;;6151312;23;20216;-85
2024/01/13 07:52:04;;;;;;;5.18;4.10;;;1.80;1.00;;;;;;6151214;23;20188;-83
2024/01/13 07:54:33;;;;;;;4.18;3.78;;;1.80;1.00;;;;;;6147885;23;20207;-84
2024/01/13 07:57:00;;;;;;;4.10;3.65;;;1.80;1.00;;;;;;6138251;23;20188;-83
2024/01/13 07:59:27;;;;;;;5.90;4.32;;;1.80;1.00;;;;;;6137385;23;20216;-84
2024/01/13 08:01:53;;;;;;;4.35;3.72;;;1.80;1.00;;;;;;6137252;23;20204;-84
2024/01/13 08:04:20;;;;;;;4.00;3.50;;;1.90;1.00;;;;;;6137537;23;20259;-84
2024/01/13 08:06:49;;;;;;;4.65;3.78;;;1.90;1.00;;;;;;6136860;23;20279;-83
2024/01/13 08:09:17;;;;;;;4.60;3.10;;;1.90;1.00;;;;;;6137239;23;20202;-84
2024/01/13 08:11:44;;;;;;;4.22;3.53;;;1.90;1.00;;;;;;6136133;23;20192;-84
2024/01/13 08:14:11;;;;;;;5.13;3.83;;;1.80;1.00;;;;;;6138397;23;20208;-84
2024/01/13 08:16:38;;;;;;;3.75;3.45;;;1.90;1.00;;;;;;6142354;23;20491;-83
2024/01/13 08:19:05;;;;;;;6.82;4.05;;;1.90;1.00;;;;;;6141712;23;20240;-83
2024/01/13 08:21:31;;;;;;;4.68;3.67;;;1.90;1.00;;;;;;6133757;23;20180;-84
2024/01/13 08:24:00;;;;;;;4.05;3.30;;;1.90;1.00;;;;;;6137765;23;20220;-84
2024/01/13 08:26:29;;;;;;;3.92;3.63;;;1.90;1.00;;;;;;6150698;23;20499;-83
2024/01/13 08:28:56;;;;;;;4.78;3.70;;;1.90;1.00;;;;;;6147153;23;20201;-84
2024/01/13 08:31:23;;;;;;;8.23;4.05;;;1.90;1.00;;;;;;6141616;23;20181;-84
2024/01/13 08:33:50;;;;;;;5.13;3.90;;;1.90;1.00;;;;;;6142329;23;20572;-85
2024/01/13 08:36:17;;;;;;;5.20;3.67;;;1.90;1.00;;;;;;6141258;23;20188;-84
2024/01/13 08:39:11;;;;;;;3.95;3.65;;;2.00;1.00;;;;;;6140993;23;20534;-85
2024/01/13 08:41:39;;;;;;;5.10;3.53;;;2.00;1.00;;;;;;6145328;23;20172;-84
2024/01/13 08:44:06;;;;;;;4.50;3.28;;;2.00;1.00;;;;;;6147694;23;20185;-83
2024/01/13 08:46:33;;;;;;;3.05;2.83;;;2.00;1.00;;;;;;6148190;23;20180;-84
2024/01/13 08:49:00;;;;;;;3.00;2.80;;;2.00;1.00;;;;;;6141764;23;20224;-90
2024/01/13 08:51:27;;;;;;;4.78;2.70;;;2.10;1.00;;;;;;6153791;23;20163;-89
2024/01/13 08:53:54;;;;;;;4.95;3.55;;;2.10;1.00;;;;;;6141701;23;20181;-90
2024/01/13 08:56:26;;;;;;;4.97;4.45;;;2.60;1.00;;;;;;6133274;23;20206;-89
2024/01/13 08:58:58;;;;;;;8.27;6.60;;;2.10;1.00;;;;;;6134032;23;20292;-90
2024/01/13 09:01:27;;;;;;;7.45;5.00;;;2.10;1.00;;;;;;6134722;23;20245;-90
2024/01/13 09:03:54;;;;;;;12.35;8.55;;;2.40;1.00;;;;;;6150734;23;20173;-89
2024/01/13 09:06:36;;;;;;;36.72;15.88;;;2.30;1.00;;;;;;6155355;23;20248;-87
2024/01/13 09:09:08;;;;;;;7.10;6.45;;;2.10;1.00;;;;;;6145256;23;20275;-90
2024/01/13 09:11:35;;;;;;;5.40;4.95;;;2.10;1.00;;;;;;6134643;23;20197;-90
2024/01/13 09:14:10;;;;;;;3.70;3.40;;;2.10;1.00;;;;;;6134060;23;20256;-90
2024/01/13 09:16:39;;;;;;;4.22;3.83;;;2.10;1.00;;;;;;6133429;23;20185;-90
2024/01/13 09:19:09;;;;;;;2.90;2.70;;;2.10;1.00;;;;;;6133250;23;20663;-90
2024/01/13 09:22:19;;;;;;;4.20;3.80;;;2.10;1.00;;;;;;6132902;23;20204;-90
2024/01/13 09:24:46;;;;;;;3.55;3.25;;;2.20;1.00;;;;;;6134375;23;20475;-89
2024/01/13 09:27:16;;;;;;;3.53;3.30;;;2.20;1.00;;;;;;6136300;23;20679;-89
2024/01/13 09:29:45;;;;;;;4.65;3.53;;;2.20;1.00;;;;;;6140497;23;20185;-89
2024/01/13 09:32:25;;;;;;;3.70;3.40;;;2.30;1.00;;;;;;6154589;23;20153;-88
2024/01/13 09:34:58;;;;;;;3.70;3.40;;;2.50;1.00;;;;;;6153975;23;20201;-89
2024/01/13 09:37:48;;;;;;;3.35;3.05;;;2.30;1.00;;;;;;6148585;23;20173;-89
2024/01/13 09:43:23;;;;;;;2.90;2.70;;;2.40;1.00;;;;;;6118973;23;20184;-88
2024/01/13 09:49:04;;;;;;;4.80;4.20;;;2.50;1.00;;;;;;6098339;23;20198;-89
2024/01/13 09:51:55;;;;;;;2.70;2.50;;;2.40;1.00;;;;;;6150579;23;20173;-89
2024/01/13 09:54:52;;;;;;;3.60;3.25;;;2.40;99.90;;;;;;6152686;23;20193;-89
2024/01/13 10:07:38;;;;;;;3.30;3.00;;;2.50;99.90;;;;;;5946300;23;20180;-89
2024/01/13 10:10:09;;;;;;;4.03;2.95;;;2.60;99.90;;;;;;5987661;23;20196;-89
2024/01/13 10:12:41;;;;;;;4.05;3.10;;;2.60;99.90;;;;;;5995842;24;20173;-90
2024/01/13 10:19:21;;;;;;;3.70;2.85;;;2.60;99.90;;;;;;6066306;23;20190;-89
2024/01/13 10:22:27;;;;;;;3.25;2.95;;;3.10;99.90;;;;;;6080836;23;20218;-90
2024/01/13 10:28:08;;;;;;;3.28;2.88;;;2.60;99.90;;;;;;6073335;23;20254;-88
2024/01/13 10:30:50;;;;;;;3.05;2.75;;;2.60;99.90;;;;;;6132546;23;20227;-87
2024/01/13 10:33:17;;;;;;;3.67;3.28;;;2.60;99.90;;;;;;6154462;23;20238;-88
2024/01/13 10:35:46;;;;;;;3.63;2.47;;;2.60;99.90;;;;;;6154699;23;20205;-86
2024/01/13 10:38:35;;;;;;;2.95;2.75;;;2.70;99.90;;;;;;6154468;23;20157;-87
2024/01/13 10:41:57;;;;;;;2.72;2.53;;;2.50;99.90;;;;;;6145716;23;20192;-87
2024/01/13 10:44:46;;;;;;;2.42;2.22;;;2.50;99.90;;;;;;6152718;23;20165;-88
2024/01/13 10:47:48;;;;;;;2.60;2.40;;;2.50;99.90;;;;;;6154045;23;20188;-88
2024/01/13 10:56:47;;;;;;;3.72;3.40;;;2.50;99.90;;;;;;6136037;23;20187;-89
2024/01/13 10:59:27;;;;;;;;;;;;;;;;;;;;;
2024/01/13 11:02:07;;;;;;;3.63;3.10;;;2.40;99.90;;;;;;6151691;23;20228;-88
2024/01/13 11:04:40;;;;;;;3.33;2.55;;;2.40;99.90;;;;;;6147261;23;20173;-88
2024/01/13 11:07:07;;;;;;;3.88;3.58;;;2.40;99.90;;;;;;6134956;23;20169;-90
2024/01/13 11:09:47;;;;;;;3.22;2.97;;;2.40;99.90;;;;;;6133035;23;20672;-86
2024/01/13 11:12:24;;;;;;;2.70;2.47;;;2.70;99.90;;;;;;6132671;23;20226;-89
2024/01/13 11:15:12;;;;;;;3.65;2.83;;;2.60;99.90;;;;;;6133093;23;20191;-89
2024/01/13 11:17:42;;;;;;;3.00;2.80;;;2.40;99.90;;;;;;6133076;23;20177;-89
2024/01/13 11:20:13;;;;;;;3.60;2.80;;;2.50;99.90;;;;;;6131214;23;20244;-89
2024/01/13 11:22:58;;;;;;;3.67;3.03;;;2.40;99.90;;;;;;6134004;23;20228;-88
2024/01/13 11:25:30;;;;;;;3.55;3.25;;;2.50;99.90;;;;;;6134660;23;20241;-88
2024/01/13 11:28:26;;;;;;;4.72;3.05;;;2.40;99.90;;;;;;6135052;23;20165;-87
2024/01/13 11:31:14;;;;;;;2.97;2.78;;;2.40;99.90;;;;;;6137309;23;20165;-88
2024/01/13 11:33:55;;;;;;;2.80;2.60;;;2.50;99.90;;;;;;6144210;23;20177;-89
2024/01/13 11:36:48;;;;;;;2.08;1.92;;;2.70;99.90;;;;;;6149793;23;20217;-90
2024/01/13 11:39:27;;;;;;;3.90;2.65;;;2.50;99.90;;;;;;6153756;23;20196;-89
2024/01/13 11:42:37;;;;;;;;;;;;;;;;;;;;;
2024/01/13 11:45:35;;;;;;;2.85;2.65;;;2.60;99.90;;;;;;6152859;23;20240;-91
2024/01/13 11:48:42;;;;;;;3.20;2.92;;;2.50;99.90;;;;;;6149947;23;20177;-90
2024/01/13 11:54:08;;;;;;;2.83;2.63;;;2.50;99.90;;;;;;6142876;23;20161;-91
2024/01/13 11:56:38;;;;;;;4.05;3.40;;;2.40;99.90;;;;;;6133911;23;20201;-88
2024/01/13 11:59:05;;;;;;;3.58;3.22;;;2.50;99.90;;;;;;6136232;23;20201;-86
2024/01/13 12:01:33;;;;;;;3.33;3.05;;;2.50;99.90;;;;;;6136930;23;20231;-85
2024/01/13 12:04:00;;;;;;;3.30;3.00;;;2.50;99.90;;;;;;6138038;23;20256;-86
2024/01/13 12:06:27;;;;;;;3.45;3.15;;;2.60;99.90;;;;;;6136730;23;20223;-85
2024/01/13 12:08:54;;;;;;;4.45;3.65;;;2.50;99.90;;;;;;6142405;23;20224;-84
2024/01/13 12:11:22;;;;;;;3.70;3.40;;;2.50;99.90;;;;;;6146218;23;20188;-85
2024/01/13 12:13:49;;;;;;;3.65;3.00;;;2.60;99.90;;;;;;6137071;23;20566;-86
2024/01/13 12:16:16;;;;;;;3.53;2.95;;;2.60;99.90;;;;;;6135401;23;20200;-85
2024/01/13 12:18:48;;;;;;;5.63;3.70;;;2.50;99.90;;;;;;6138075;23;20297;-84
2024/01/13 12:21:15;;;;;;;3.10;2.90;;;2.50;99.90;;;;;;6139764;23;20185;-84
2024/01/13 12:23:43;;;;;;;2.72;2.50;;;2.60;99.90;;;;;;6143499;23;20181;-84
2024/01/13 12:26:10;;;;;;;3.15;2.90;;;2.60;99.90;;;;;;6141111;23;20180;-85
2024/01/13 12:28:37;;;;;;;2.78;2.58;;;2.60;99.90;;;;;;6137737;23;20225;-85
2024/01/13 12:31:04;;;;;;;2.20;2.00;;;2.60;99.90;;;;;;6138447;23;20177;-86
2024/01/13 12:33:32;;;;;;;2.92;2.72;;;2.70;99.90;;;;;;6144185;23;20181;-86
2024/01/13 12:36:01;;;;;;;3.08;2.88;;;2.70;99.90;;;;;;6139676;23;20180;-84
2024/01/13 12:38:28;;;;;;;3.35;3.15;;;2.70;99.90;;;;;;6145555;23;20209;-85
2024/01/13 12:40:55;;;;;;;2.90;2.70;;;2.70;99.90;;;;;;6153040;23;20197;-85
2024/01/13 12:43:26;;;;;;;2.65;2.28;;;2.70;99.90;;;;;;6141929;23;20185;-85
2024/01/13 12:45:54;;;;;;;2.67;2.45;;;2.70;99.90;;;;;;6137866;23;20162;-85
2024/01/13 12:48:21;;;;;;;2.60;2.40;;;2.70;99.90;;;;;;6140538;23;20169;-86
2024/01/13 12:50:48;;;;;;;2.58;2.38;;;2.70;99.90;;;;;;6136831;23;20207;-86
2024/01/13 12:53:16;;;;;;;6.07;2.90;;;2.70;99.90;;;;;;6149587;23;20176;-86
2024/01/13 12:55:43;;;;;;;2.22;2.03;;;2.60;99.90;;;;;;6151204;23;20189;-85
2024/01/13 12:58:10;;;;;;;3.10;2.45;;;2.50;99.90;;;;;;6153233;23;20161;-84
2024/01/13 13:00:37;;;;;;;2.60;2.40;;;2.50;99.90;;;;;;6149353;23;20205;-86
2024/01/13 13:03:04;;;;;;;2.50;2.30;;;2.50;99.90;;;;;;6152803;23;20181;-85
2024/01/13 13:05:31;;;;;;;4.60;3.85;;;2.50;99.90;;;;;;6151115;23;20188;-85
2024/01/13 13:07:58;;;;;;;2.70;2.50;;;2.50;99.90;;;;;;6150921;23;20165;-84
2024/01/13 13:10:26;;;;;;;3.33;3.03;;;2.50;99.90;;;;;;6152902;23;20189;-82
2024/01/13 13:12:55;;;;;;;3.33;2.92;;;2.50;99.90;;;;;;6153926;23;20161;-84
2024/01/13 13:15:21;;;;;;;3.22;2.75;;;2.50;99.90;;;;;;6142002;23;20184;-85
2024/01/13 13:17:49;;;;;;;4.03;3.58;;;2.60;99.90;;;;;;6139798;23;20188;-85
2024/01/13 13:20:16;;;;;;;2.80;2.60;;;2.50;99.90;;;;;;6147084;23;20201;-84
2024/01/13 13:22:43;;;;;;;7.45;3.15;;;2.60;99.90;;;;;;6142001;23;20212;-84
2024/01/13 13:25:10;;;;;;;3.67;3.03;;;2.50;99.90;;;;;;6137001;23;20181;-85
2024/01/13 13:27:38;;;;;;;2.50;2.33;;;2.60;99.90;;;;;;6137794;23;20211;-84
2024/01/13 13:30:07;;;;;;;3.25;2.72;;;2.50;99.90;;;;;;6138022;23;20663;-85
2024/01/13 13:32:35;;;;;;;4.25;3.35;;;2.50;99.90;;;;;;6134972;23;20185;-85
2024/01/13 13:35:04;;;;;;;5.30;4.45;;;2.50;1.00;;;;;;6134644;23;20192;-86
2024/01/13 13:37:31;;;;;;;2.95;2.65;;;2.60;1.00;;;;;;6134723;23;20177;-85
2024/01/13 13:39:57;;;;;;;3.38;3.17;;;2.50;1.00;;;;;;6135620;23;20201;-85
2024/01/13 13:42:24;;;;;;;3.20;2.85;;;2.50;1.00;;;;;;6135105;23;20689;-85
2024/01/13 13:44:53;;;;;;;3.80;3.30;;;2.50;1.00;;;;;;6135127;23;20177;-87
2024/01/13 13:47:20;;;;;;;4.05;3.65;;;2.50;1.00;;;;;;6134431;23;20185;-86